createdAt,value
2018-12-13T00:02:33.352Z,16.87
2018-12-13T00:07:33.282Z,19.90
2018-12-13T00:12:29.446Z,15.10
2018-12-13T00:17:25.617Z,17.60
2018-12-13T00:22:21.970Z,17.23
2018-12-13T00:27:18.114Z,20.63
2018-12-13T00:32:15.306Z,15.87
2018-12-13T00:37:11.577Z,16.80
2018-12-13T00:42:07.835Z,18.90
2018-12-13T00:47:05.236Z,17.27
2018-12-13T00:52:01.451Z,15.20
2018-12-13T00:56:57.679Z,18.50
2018-12-13T01:02:00.733Z,17.77
2018-12-13T01:06:57.091Z,20.60
2018-12-13T01:11:54.395Z,24.30
2018-12-13T01:16:50.515Z,17.67
2018-12-13T01:21:46.777Z,19.60
2018-12-13T01:26:42.995Z,17.63
2018-12-13T01:31:40.355Z,15.57
2018-12-13T01:36:36.575Z,16.17
2018-12-13T01:41:32.765Z,16.90
2018-12-13T01:46:29.642Z,15.23
2018-12-13T01:51:26.437Z,15.50
2018-12-13T01:56:23.234Z,18.20
2018-12-13T02:01:19.371Z,13.07
2018-12-13T02:06:15.458Z,19.03
2018-12-13T02:11:11.587Z,15.77
2018-12-13T02:16:08.625Z,14.60
2018-12-13T02:21:04.774Z,19.20
2018-12-13T02:26:00.867Z,14.87
2018-12-13T02:30:57.011Z,14.70
2018-12-13T02:35:53.153Z,11.20
2018-12-13T02:40:49.290Z,10.83
2018-12-13T02:45:45.380Z,12.33
2018-12-13T02:50:41.549Z,14.50
2018-12-13T02:55:37.682Z,9.50
2018-12-13T03:00:34.155Z,12.10
2018-12-13T03:05:30.277Z,12.00
2018-12-13T03:10:26.339Z,13.90
2018-12-13T03:15:22.455Z,14.10
2018-12-13T03:20:19.685Z,13.40
2018-12-13T03:25:15.792Z,14.80
2018-12-13T03:30:13.112Z,14.13
2018-12-13T03:35:09.257Z,13.60
2018-12-13T03:40:05.689Z,11.40
2018-12-13T03:45:01.879Z,13.53
2018-12-13T03:49:58.075Z,19.87
2018-12-13T03:54:54.210Z,20.83
2018-12-13T03:59:50.342Z,18.33
2018-12-13T04:04:48.636Z,27.47
2018-12-13T04:09:44.718Z,17.90
2018-12-13T04:14:41.850Z,21.17
2018-12-13T04:19:38.005Z,21.23
2018-12-13T04:24:34.354Z,23.33
2018-12-13T04:29:30.488Z,23.93
2018-12-13T04:34:26.700Z,25.50
2018-12-13T04:39:22.807Z,20.20
2018-12-13T04:44:18.980Z,18.30
2018-12-13T04:49:15.101Z,29.40
2018-12-13T04:54:11.209Z,28.33
2018-12-13T04:59:07.329Z,28.83
2018-12-13T05:04:03.492Z,28.60
2018-12-13T05:08:59.600Z,24.40
2018-12-13T05:13:55.774Z,26.50
2018-12-13T05:18:51.916Z,31.63
2018-12-13T05:23:48.013Z,35.63
2018-12-13T05:28:44.112Z,27.23
2018-12-13T05:33:40.205Z,29.20
2018-12-13T05:38:36.347Z,29.60
2018-12-13T05:43:32.454Z,25.43
2018-12-13T05:48:28.681Z,28.00
2018-12-13T05:53:24.775Z,28.53
2018-12-13T05:58:20.896Z,26.90
2018-12-13T06:03:18.116Z,26.77
2018-12-13T06:08:14.235Z,25.23
2018-12-13T06:13:10.411Z,27.87
2018-12-13T06:18:06.963Z,33.40
2018-12-13T06:23:03.416Z,25.77
2018-12-13T06:27:59.531Z,30.90
2018-12-13T06:32:55.638Z,34.97
2018-12-13T06:37:51.850Z,28.33
2018-12-13T06:42:47.982Z,30.17
2018-12-13T06:47:44.236Z,33.63
2018-12-13T06:52:40.307Z,34.77
2018-12-13T06:57:36.362Z,28.13
2018-12-13T07:02:33.240Z,34.43
2018-12-13T07:07:36.027Z,33.83
2018-12-13T07:12:34.117Z,35.00
2018-12-13T07:17:32.720Z,31.37
2018-12-13T07:22:30.690Z,27.30
2018-12-13T07:27:28.768Z,28.23
2018-12-13T07:32:29.372Z,27.57
2018-12-13T07:37:25.637Z,30.77
2018-12-13T07:42:21.729Z,30.60
2018-12-13T07:47:17.856Z,31.30
2018-12-13T07:52:14.016Z,32.60
2018-12-13T07:57:10.081Z,44.47
2018-12-13T08:02:07.492Z,32.17
2018-12-13T08:07:03.698Z,30.50
2018-12-13T08:11:59.848Z,30.63
2018-12-13T08:16:56.052Z,32.70
2018-12-13T08:21:52.249Z,31.20
2018-12-13T08:26:48.369Z,30.07
2018-12-13T08:31:47.592Z,35.17
2018-12-13T08:36:43.735Z,30.50
2018-12-13T08:41:39.849Z,31.93
2018-12-13T08:46:36.682Z,31.20
2018-12-13T08:51:33.021Z,33.13
2018-12-13T08:56:29.208Z,34.60
2018-12-13T09:01:25.438Z,42.60
2018-12-13T09:06:21.608Z,30.40
2018-12-13T09:11:19.157Z,33.33
2018-12-13T09:16:17.007Z,39.90
2018-12-13T09:21:14.291Z,35.17
2018-12-13T09:26:14.486Z,34.67
2018-12-13T09:31:11.526Z,40.10
2018-12-13T09:36:11.328Z,39.73
2018-12-13T09:41:08.931Z,33.33
2018-12-13T09:46:06.731Z,35.90
2018-12-13T09:51:03.819Z,47.83
2018-12-13T09:55:59.934Z,34.67
2018-12-13T10:00:56.007Z,32.07
2018-12-13T10:05:52.314Z,33.93
2018-12-13T10:10:48.381Z,35.43
2018-12-13T10:15:44.498Z,31.23
2018-12-13T10:20:40.617Z,28.33
2018-12-13T10:25:36.684Z,39.13
2018-12-13T10:30:33.738Z,32.90
2018-12-13T10:35:29.908Z,30.00
2018-12-13T10:40:26.512Z,31.83
2018-12-13T10:45:22.688Z,26.50
2018-12-13T10:50:18.787Z,30.90
2018-12-13T10:55:14.969Z,38.07
2018-12-13T11:00:14.345Z,27.07
2018-12-13T11:05:10.810Z,31.43
2018-12-13T11:10:08.162Z,30.30
2018-12-13T11:15:04.593Z,25.13
2018-12-13T11:20:00.680Z,24.83
2018-12-13T11:24:56.853Z,22.77
2018-12-13T11:30:05.177Z,18.37
2018-12-13T11:35:01.262Z,15.27
2018-12-13T11:39:57.366Z,12.27
2018-12-13T11:44:53.531Z,15.40
2018-12-13T11:49:49.589Z,13.90
2018-12-13T11:54:45.718Z,11.13
2018-12-13T11:59:41.858Z,16.47
2018-12-13T12:04:38.022Z,11.17
2018-12-13T12:09:34.249Z,14.50
2018-12-13T12:14:30.335Z,13.10
2018-12-13T12:19:26.368Z,14.57
2018-12-13T12:24:22.970Z,14.90
2018-12-13T12:29:19.102Z,16.00
2018-12-13T12:34:15.432Z,15.73
2018-12-13T12:39:11.496Z,12.77
2018-12-13T12:44:07.551Z,16.97
2018-12-13T12:49:03.674Z,14.73
2018-12-13T12:53:59.894Z,16.70
2018-12-13T12:58:56.065Z,14.17
2018-12-13T13:03:53.618Z,14.70
2018-12-13T13:08:49.777Z,11.67
2018-12-13T13:13:45.918Z,12.50
2018-12-13T13:18:42.002Z,13.67
2018-12-13T13:23:38.082Z,13.30
2018-12-13T13:28:34.450Z,9.63
2018-12-13T13:33:30.623Z,6.97
2018-12-13T13:38:26.754Z,6.97
2018-12-13T13:43:22.863Z,7.90
2018-12-13T13:48:18.994Z,8.80
2018-12-13T13:53:16.272Z,11.10
2018-12-13T13:58:12.765Z,10.53
2018-12-13T14:03:10.223Z,7.87
2018-12-13T14:08:06.861Z,6.93
2018-12-13T14:13:07.051Z,9.33
2018-12-13T14:18:03.584Z,9.27
2018-12-13T14:23:00.165Z,12.17
2018-12-13T14:27:56.598Z,10.40
2018-12-13T14:32:53.475Z,9.23
2018-12-13T14:37:49.567Z,9.37
2018-12-13T14:42:45.745Z,11.07
2018-12-13T14:47:41.865Z,9.30
2018-12-13T14:52:37.925Z,10.13
2018-12-13T14:57:34.027Z,9.33
2018-12-13T15:02:30.952Z,10.90
2018-12-13T15:07:27.036Z,10.37
2018-12-13T15:12:23.193Z,15.73
2018-12-13T15:17:19.374Z,8.77
2018-12-13T15:22:15.464Z,10.90
2018-12-13T15:27:11.532Z,12.73
2018-12-13T15:32:11.795Z,12.67
2018-12-13T15:37:10.260Z,13.00
2018-12-13T15:42:06.359Z,14.27
2018-12-13T15:47:02.422Z,15.80
2018-12-13T15:51:58.581Z,16.83
2018-12-13T15:56:54.633Z,11.13
2018-12-13T16:01:52.931Z,12.97
2018-12-13T16:06:49.035Z,10.77
2018-12-13T16:11:45.058Z,11.73
2018-12-13T16:16:41.125Z,12.40
2018-12-13T16:21:37.346Z,10.97
2018-12-13T16:26:34.978Z,8.93
2018-12-13T16:31:31.106Z,9.50
2018-12-13T16:36:27.265Z,11.57
2018-12-13T16:41:23.322Z,13.40
2018-12-13T16:46:19.371Z,13.93
2018-12-13T16:51:15.517Z,11.07
2018-12-13T16:56:11.660Z,10.27
2018-12-13T17:01:07.749Z,8.60
2018-12-13T17:06:04.117Z,14.17
2018-12-13T17:11:00.289Z,10.10
2018-12-13T17:15:56.330Z,13.27
2018-12-13T17:20:52.397Z,11.37
2018-12-13T17:25:48.461Z,13.77
2018-12-13T17:30:44.507Z,12.80
2018-12-13T17:35:40.554Z,12.70
2018-12-13T17:40:36.639Z,12.93
2018-12-13T17:45:32.788Z,15.83
2018-12-13T17:50:28.928Z,13.17
2018-12-13T17:55:25.018Z,15.63
2018-12-13T18:00:21.068Z,11.90
2018-12-13T18:05:17.103Z,16.50
2018-12-13T18:10:13.146Z,14.60
2018-12-13T18:15:09.295Z,17.13
2018-12-13T18:20:05.608Z,18.10
2018-12-13T18:25:01.865Z,21.50
2018-12-13T18:29:57.918Z,13.60
2018-12-13T18:34:53.963Z,16.90
2018-12-13T18:39:50.020Z,15.00
2018-12-13T18:44:46.049Z,16.63
2018-12-13T18:49:42.087Z,16.43
2018-12-13T18:54:38.208Z,20.30
2018-12-13T18:59:34.248Z,16.73
2018-12-13T19:04:30.277Z,15.90
2018-12-13T19:09:26.316Z,22.70
2018-12-13T19:14:22.354Z,16.97
2018-12-13T19:19:18.406Z,16.33
2018-12-13T19:24:14.440Z,14.93
2018-12-13T19:29:10.497Z,19.33
2018-12-13T19:34:06.544Z,17.50
2018-12-13T19:39:04.654Z,17.77
2018-12-13T19:44:01.461Z,18.03
2018-12-13T19:48:58.130Z,17.73
2018-12-13T19:53:54.829Z,15.90
2018-12-13T19:58:51.313Z,20.27
2018-12-13T20:03:47.985Z,18.93
2018-12-13T20:08:44.615Z,15.20
2018-12-13T20:13:41.234Z,16.20
2018-12-13T20:18:37.853Z,17.33
2018-12-13T20:23:34.492Z,16.97
2018-12-13T20:28:31.156Z,19.47
2018-12-13T20:33:27.791Z,17.73
2018-12-13T20:38:24.430Z,18.60
2018-12-13T20:43:20.787Z,17.07
2018-12-13T20:48:17.406Z,18.03
2018-12-13T20:53:13.973Z,16.63
2018-12-13T20:58:10.687Z,18.27
2018-12-13T21:03:06.719Z,20.13
2018-12-13T21:08:07.939Z,21.80
2018-12-13T21:13:04.074Z,20.73
2018-12-13T21:18:00.234Z,18.30
2018-12-13T21:22:56.262Z,15.80
2018-12-13T21:27:52.346Z,19.10
2018-12-13T21:32:49.399Z,22.23
2018-12-13T21:37:45.959Z,18.63
2018-12-13T21:42:42.458Z,18.53
2018-12-13T21:47:38.984Z,22.10
2018-12-13T21:52:35.636Z,22.07
2018-12-13T21:57:32.122Z,22.23
2018-12-13T22:02:28.937Z,18.93
2018-12-13T22:07:24.973Z,20.00
2018-12-13T22:12:21.007Z,20.93
2018-12-13T22:17:17.181Z,19.37
2018-12-13T22:22:14.055Z,23.40
2018-12-13T22:27:10.085Z,30.47
2018-12-13T22:32:09.325Z,25.43
2018-12-13T22:37:06.374Z,26.77
2018-12-13T22:42:02.772Z,26.73
2018-12-13T22:46:59.204Z,25.27
2018-12-13T22:51:55.946Z,23.40
2018-12-13T22:56:52.417Z,21.83
2018-12-13T23:01:49.491Z,25.80
2018-12-13T23:06:45.993Z,23.70
2018-12-13T23:11:42.309Z,19.67
2018-12-13T23:16:38.862Z,27.50
2018-12-13T23:21:35.558Z,24.80
2018-12-13T23:26:32.158Z,11.73
2018-12-13T23:31:28.554Z,30.97
2018-12-13T23:36:24.892Z,24.43
2018-12-13T23:41:21.296Z,29.10
2018-12-13T23:46:17.625Z,33.77
2018-12-13T23:51:13.909Z,25.83
2018-12-13T23:56:09.959Z,34.60
